sensor_id;sensor_type;location;lat;lon;timestamp;P1;durP1;ratioP1;P2;durP2;ratioP2
5690;SDS011;2870;42.680;23.364;2023-02-27T00:00:30;36.60;;;14.00;;
5690;SDS011;2870;42.680;23.364;2023-02-27T00:02:57;34.80;;;13.40;;
5690;SDS011;2870;42.680;23.364;2023-02-27T00:05:24;35.50;;;11.97;;
5690;SDS011;2870;42.680;23.364;2023-02-27T00:07:51;36.83;;;12.73;;
5690;SDS011;2870;42.680;23.364;2023-02-27T00:10:18;29.17;;;11.97;;
5690;SDS011;2870;42.680;23.364;2023-02-27T00:12:45;27.03;;;11.30;;
5690;SDS011;2870;42.680;23.364;2023-02-27T00:15:14;32.30;;;12.63;;
5690;SDS011;2870;42.680;23.364;2023-02-27T00:17:42;37.77;;;14.77;;
5690;SDS011;2870;42.680;23.364;2023-02-27T00:20:10;27.70;;;12.60;;
5690;SDS011;2870;42.680;23.364;2023-02-27T00:22:38;36.60;;;12.50;;
5690;SDS011;2870;42.680;23.364;2023-02-27T00:25:07;29.13;;;12.10;;
5690;SDS011;2870;42.680;23.364;2023-02-27T00:27:34;31.73;;;12.77;;
5690;SDS011;2870;42.680;23.364;2023-02-27T00:30:02;29.47;;;12.00;;
5690;SDS011;2870;42.680;23.364;2023-02-27T00:32:30;40.90;;;13.17;;
5690;SDS011;2870;42.680;23.364;2023-02-27T00:34:57;24.00;;;11.40;;
5690;SDS011;2870;42.680;23.364;2023-02-27T00:37:24;46.03;;;12.60;;
5690;SDS011;2870;42.680;23.364;2023-02-27T00:39:51;47.77;;;16.40;;
5690;SDS011;2870;42.680;23.364;2023-02-27T00:42:18;43.77;;;17.27;;
5690;SDS011;2870;42.680;23.364;2023-02-27T00:44:45;48.47;;;14.77;;
5690;SDS011;2870;42.680;23.364;2023-02-27T00:47:11;42.03;;;14.17;;
5690;SDS011;2870;42.680;23.364;2023-02-27T00:49:40;53.37;;;14.03;;
5690;SDS011;2870;42.680;23.364;2023-02-27T00:52:06;35.47;;;13.57;;
5690;SDS011;2870;42.680;23.364;2023-02-27T00:54:33;32.43;;;12.03;;
5690;SDS011;2870;42.680;23.364;2023-02-27T00:57:01;37.60;;;14.27;;
5690;SDS011;2870;42.680;23.364;2023-02-27T00:59:27;52.80;;;14.80;;
5690;SDS011;2870;42.680;23.364;2023-02-27T01:01:55;51.20;;;14.60;;
5690;SDS011;2870;42.680;23.364;2023-02-27T01:04:21;40.87;;;14.90;;
5690;SDS011;2870;42.680;23.364;2023-02-27T01:06:50;42.97;;;15.93;;
5690;SDS011;2870;42.680;23.364;2023-02-27T01:09:17;35.77;;;13.20;;
5690;SDS011;2870;42.680;23.364;2023-02-27T01:11:43;37.93;;;13.97;;
5690;SDS011;2870;42.680;23.364;2023-02-27T01:14:10;38.47;;;13.70;;
5690;SDS011;2870;42.680;23.364;2023-02-27T01:16:37;32.83;;;13.73;;
5690;SDS011;2870;42.680;23.364;2023-02-27T01:19:04;47.73;;;14.13;;
5690;SDS011;2870;42.680;23.364;2023-02-27T01:21:31;35.93;;;12.33;;
5690;SDS011;2870;42.680;23.364;2023-02-27T01:23:59;33.07;;;13.23;;
5690;SDS011;2870;42.680;23.364;2023-02-27T01:26:26;37.17;;;14.77;;
5690;SDS011;2870;42.680;23.364;2023-02-27T01:28:53;46.20;;;14.53;;
5690;SDS011;2870;42.680;23.364;2023-02-27T01:31:20;37.10;;;13.87;;
5690;SDS011;2870;42.680;23.364;2023-02-27T01:33:47;33.30;;;14.43;;
5690;SDS011;2870;42.680;23.364;2023-02-27T01:36:14;36.27;;;13.40;;
5690;SDS011;2870;42.680;23.364;2023-02-27T01:38:40;32.17;;;12.90;;
5690;SDS011;2870;42.680;23.364;2023-02-27T01:41:09;37.73;;;13.50;;
5690;SDS011;2870;42.680;23.364;2023-02-27T01:46:22;46.53;;;13.97;;
5690;SDS011;2870;42.680;23.364;2023-02-27T01:48:49;25.67;;;11.70;;
5690;SDS011;2870;42.680;23.364;2023-02-27T01:51:19;29.50;;;12.50;;
5690;SDS011;2870;42.680;23.364;2023-02-27T01:53:48;33.63;;;12.67;;
5690;SDS011;2870;42.680;23.364;2023-02-27T01:56:20;35.93;;;13.50;;
5690;SDS011;2870;42.680;23.364;2023-02-27T01:58:49;30.03;;;13.73;;
5690;SDS011;2870;42.680;23.364;2023-02-27T02:01:19;45.93;;;12.20;;
5690;SDS011;2870;42.680;23.364;2023-02-27T02:03:49;26.57;;;12.37;;
5690;SDS011;2870;42.680;23.364;2023-02-27T02:06:20;41.40;;;12.33;;
5690;SDS011;2870;42.680;23.364;2023-02-27T02:08:48;26.33;;;12.30;;
5690;SDS011;2870;42.680;23.364;2023-02-27T02:11:17;24.93;;;11.27;;
5690;SDS011;2870;42.680;23.364;2023-02-27T02:13:46;29.00;;;10.83;;
5690;SDS011;2870;42.680;23.364;2023-02-27T02:19:24;34.10;;;11.03;;
5690;SDS011;2870;42.680;23.364;2023-02-27T02:22:17;23.90;;;10.40;;
5690;SDS011;2870;42.680;23.364;2023-02-27T02:25:14;40.00;;;12.27;;
5690;SDS011;2870;42.680;23.364;2023-02-27T02:28:06;30.97;;;11.50;;
5690;SDS011;2870;42.680;23.364;2023-02-27T02:30:58;32.83;;;11.90;;
5690;SDS011;2870;42.680;23.364;2023-02-27T02:33:57;21.57;;;9.60;;
5690;SDS011;2870;42.680;23.364;2023-02-27T02:39:46;17.43;;;6.63;;
5690;SDS011;2870;42.680;23.364;2023-02-27T02:42:30;13.10;;;5.70;;
5690;SDS011;2870;42.680;23.364;2023-02-27T02:45:06;9.80;;;4.33;;
5690;SDS011;2870;42.680;23.364;2023-02-27T02:47:40;7.43;;;4.30;;
5690;SDS011;2870;42.680;23.364;2023-02-27T02:50:20;11.13;;;3.50;;
5690;SDS011;2870;42.680;23.364;2023-02-27T02:52:53;9.67;;;4.33;;
5690;SDS011;2870;42.680;23.364;2023-02-27T02:55:31;5.60;;;3.23;;
5690;SDS011;2870;42.680;23.364;2023-02-27T02:58:01;7.97;;;3.40;;
5690;SDS011;2870;42.680;23.364;2023-02-27T03:03:07;7.33;;;3.13;;
5690;SDS011;2870;42.680;23.364;2023-02-27T03:05:38;9.10;;;3.60;;
5690;SDS011;2870;42.680;23.364;2023-02-27T03:08:10;5.37;;;3.43;;
5690;SDS011;2870;42.680;23.364;2023-02-27T03:10:44;9.70;;;4.03;;
5690;SDS011;2870;42.680;23.364;2023-02-27T03:13:16;9.80;;;3.23;;
5690;SDS011;2870;42.680;23.364;2023-02-27T03:15:50;10.37;;;3.80;;
5690;SDS011;2870;42.680;23.364;2023-02-27T03:18:23;11.33;;;5.53;;
5690;SDS011;2870;42.680;23.364;2023-02-27T03:20:53;12.70;;;6.20;;
5690;SDS011;2870;42.680;23.364;2023-02-27T03:23:26;10.07;;;6.17;;
5690;SDS011;2870;42.680;23.364;2023-02-27T03:25:58;10.67;;;6.90;;
5690;SDS011;2870;42.680;23.364;2023-02-27T03:28:28;10.77;;;6.50;;
5690;SDS011;2870;42.680;23.364;2023-02-27T03:31:05;14.47;;;6.30;;
5690;SDS011;2870;42.680;23.364;2023-02-27T03:33:37;10.37;;;7.10;;
5690;SDS011;2870;42.680;23.364;2023-02-27T03:36:09;13.03;;;6.03;;
5690;SDS011;2870;42.680;23.364;2023-02-27T03:38:47;12.93;;;7.30;;
5690;SDS011;2870;42.680;23.364;2023-02-27T03:41:22;15.20;;;7.70;;
5690;SDS011;2870;42.680;23.364;2023-02-27T03:43:55;10.03;;;7.00;;
5690;SDS011;2870;42.680;23.364;2023-02-27T03:46:29;11.67;;;6.40;;
5690;SDS011;2870;42.680;23.364;2023-02-27T03:48:56;11.90;;;7.10;;
5690;SDS011;2870;42.680;23.364;2023-02-27T03:51:23;10.37;;;7.47;;
5690;SDS011;2870;42.680;23.364;2023-02-27T03:53:53;9.93;;;6.33;;
5690;SDS011;2870;42.680;23.364;2023-02-27T03:56:27;12.37;;;7.00;;
5690;SDS011;2870;42.680;23.364;2023-02-27T03:58:56;10.90;;;6.30;;
5690;SDS011;2870;42.680;23.364;2023-02-27T04:01:23;11.80;;;5.93;;
5690;SDS011;2870;42.680;23.364;2023-02-27T04:03:52;9.20;;;5.50;;
5690;SDS011;2870;42.680;23.364;2023-02-27T04:06:23;9.10;;;5.83;;
5690;SDS011;2870;42.680;23.364;2023-02-27T04:09:10;15.20;;;7.77;;
5690;SDS011;2870;42.680;23.364;2023-02-27T04:11:57;9.50;;;6.30;;
5690;SDS011;2870;42.680;23.364;2023-02-27T04:14:43;9.13;;;5.47;;
5690;SDS011;2870;42.680;23.364;2023-02-27T04:17:21;9.07;;;5.67;;
5690;SDS011;2870;42.680;23.364;2023-02-27T04:20:03;9.47;;;5.93;;
5690;SDS011;2870;42.680;23.364;2023-02-27T04:22:46;9.90;;;6.60;;
5690;SDS011;2870;42.680;23.364;2023-02-27T04:25:26;8.70;;;6.10;;
5690;SDS011;2870;42.680;23.364;2023-02-27T04:28:06;8.13;;;5.70;;
5690;SDS011;2870;42.680;23.364;2023-02-27T04:30:41;11.43;;;6.17;;
5690;SDS011;2870;42.680;23.364;2023-02-27T04:33:16;9.37;;;5.60;;
5690;SDS011;2870;42.680;23.364;2023-02-27T04:35:52;9.13;;;6.30;;
5690;SDS011;2870;42.680;23.364;2023-02-27T04:38:23;9.40;;;6.50;;
5690;SDS011;2870;42.680;23.364;2023-02-27T04:40:55;9.37;;;5.97;;
5690;SDS011;2870;42.680;23.364;2023-02-27T04:43:27;11.20;;;5.63;;
5690;SDS011;2870;42.680;23.364;2023-02-27T04:45:55;9.83;;;6.60;;
5690;SDS011;2870;42.680;23.364;2023-02-27T04:48:26;9.90;;;5.87;;
5690;SDS011;2870;42.680;23.364;2023-02-27T04:50:57;10.50;;;6.83;;
5690;SDS011;2870;42.680;23.364;2023-02-27T04:53:29;10.57;;;6.13;;
5690;SDS011;2870;42.680;23.364;2023-02-27T04:56:03;10.47;;;6.73;;
5690;SDS011;2870;42.680;23.364;2023-02-27T04:58:35;8.53;;;5.77;;
5690;SDS011;2870;42.680;23.364;2023-02-27T05:01:07;10.60;;;6.27;;
5690;SDS011;2870;42.680;23.364;2023-02-27T05:03:40;9.90;;;6.17;;
5690;SDS011;2870;42.680;23.364;2023-02-27T05:06:11;8.37;;;6.20;;
5690;SDS011;2870;42.680;23.364;2023-02-27T05:08:41;9.60;;;5.80;;
5690;SDS011;2870;42.680;23.364;2023-02-27T05:11:11;7.00;;;5.17;;
5690;SDS011;2870;42.680;23.364;2023-02-27T05:13:46;11.60;;;4.77;;
5690;SDS011;2870;42.680;23.364;2023-02-27T05:16:19;7.47;;;5.70;;
5690;SDS011;2870;42.680;23.364;2023-02-27T05:18:48;11.33;;;6.60;;
5690;SDS011;2870;42.680;23.364;2023-02-27T05:21:19;7.10;;;5.40;;
5690;SDS011;2870;42.680;23.364;2023-02-27T05:23:53;7.03;;;5.20;;
5690;SDS011;2870;42.680;23.364;2023-02-27T05:26:31;7.30;;;5.23;;
5690;SDS011;2870;42.680;23.364;2023-02-27T05:29:11;8.43;;;5.80;;
5690;SDS011;2870;42.680;23.364;2023-02-27T05:31:45;9.40;;;5.70;;
5690;SDS011;2870;42.680;23.364;2023-02-27T05:34:17;7.10;;;4.87;;
5690;SDS011;2870;42.680;23.364;2023-02-27T05:36:51;6.47;;;4.73;;
5690;SDS011;2870;42.680;23.364;2023-02-27T05:39:23;6.40;;;4.53;;
5690;SDS011;2870;42.680;23.364;2023-02-27T05:41:55;6.67;;;4.80;;
5690;SDS011;2870;42.680;23.364;2023-02-27T05:44:28;9.87;;;5.73;;
5690;SDS011;2870;42.680;23.364;2023-02-27T05:46:58;6.43;;;4.83;;
5690;SDS011;2870;42.680;23.364;2023-02-27T05:49:29;7.40;;;4.90;;
5690;SDS011;2870;42.680;23.364;2023-02-27T05:51:59;6.93;;;5.00;;
5690;SDS011;2870;42.680;23.364;2023-02-27T05:54:30;7.13;;;4.87;;
5690;SDS011;2870;42.680;23.364;2023-02-27T05:57:03;8.50;;;4.90;;
5690;SDS011;2870;42.680;23.364;2023-02-27T05:59:36;8.47;;;5.30;;
5690;SDS011;2870;42.680;23.364;2023-02-27T06:02:07;9.53;;;5.43;;
5690;SDS011;2870;42.680;23.364;2023-02-27T06:04:35;7.07;;;5.23;;
5690;SDS011;2870;42.680;23.364;2023-02-27T06:07:02;8.50;;;5.20;;
5690;SDS011;2870;42.680;23.364;2023-02-27T06:09:29;9.50;;;6.20;;
5690;SDS011;2870;42.680;23.364;2023-02-27T06:11:56;12.77;;;4.90;;
5690;SDS011;2870;42.680;23.364;2023-02-27T06:14:25;7.10;;;5.53;;
5690;SDS011;2870;42.680;23.364;2023-02-27T06:16:53;9.60;;;5.67;;
5690;SDS011;2870;42.680;23.364;2023-02-27T06:19:20;6.97;;;5.70;;
5690;SDS011;2870;42.680;23.364;2023-02-27T06:21:47;9.23;;;5.50;;
5690;SDS011;2870;42.680;23.364;2023-02-27T06:24:14;6.77;;;5.57;;
5690;SDS011;2870;42.680;23.364;2023-02-27T06:26:41;9.57;;;6.47;;
5690;SDS011;2870;42.680;23.364;2023-02-27T06:29:08;7.27;;;5.00;;
5690;SDS011;2870;42.680;23.364;2023-02-27T06:31:34;7.60;;;5.63;;
5690;SDS011;2870;42.680;23.364;2023-02-27T06:34:03;8.87;;;5.77;;
5690;SDS011;2870;42.680;23.364;2023-02-27T06:36:30;7.63;;;5.73;;
5690;SDS011;2870;42.680;23.364;2023-02-27T06:38:56;8.73;;;6.47;;
5690;SDS011;2870;42.680;23.364;2023-02-27T06:41:24;9.43;;;5.90;;
5690;SDS011;2870;42.680;23.364;2023-02-27T06:43:51;7.90;;;5.40;;
5690;SDS011;2870;42.680;23.364;2023-02-27T06:46:18;13.17;;;6.30;;
5690;SDS011;2870;42.680;23.364;2023-02-27T06:48:44;10.60;;;6.13;;
5690;SDS011;2870;42.680;23.364;2023-02-27T06:51:13;9.00;;;5.20;;
5690;SDS011;2870;42.680;23.364;2023-02-27T06:53:39;8.53;;;5.97;;
5690;SDS011;2870;42.680;23.364;2023-02-27T06:56:06;11.13;;;6.30;;
5690;SDS011;2870;42.680;23.364;2023-02-27T06:58:34;10.53;;;6.90;;
5690;SDS011;2870;42.680;23.364;2023-02-27T07:01:01;8.80;;;6.37;;
5690;SDS011;2870;42.680;23.364;2023-02-27T07:03:27;13.60;;;7.00;;
5690;SDS011;2870;42.680;23.364;2023-02-27T07:05:55;8.70;;;6.20;;
5690;SDS011;2870;42.680;23.364;2023-02-27T07:08:24;10.80;;;5.90;;
5690;SDS011;2870;42.680;23.364;2023-02-27T07:10:51;9.80;;;6.67;;
5690;SDS011;2870;42.680;23.364;2023-02-27T07:13:17;12.27;;;6.83;;
5690;SDS011;2870;42.680;23.364;2023-02-27T07:15:44;7.90;;;6.10;;
5690;SDS011;2870;42.680;23.364;2023-02-27T07:18:11;9.30;;;6.03;;
5690;SDS011;2870;42.680;23.364;2023-02-27T07:20:38;12.80;;;6.40;;
5690;SDS011;2870;42.680;23.364;2023-02-27T07:23:05;10.83;;;6.50;;
5690;SDS011;2870;42.680;23.364;2023-02-27T07:25:33;9.43;;;6.20;;
5690;SDS011;2870;42.680;23.364;2023-02-27T07:28:00;8.37;;;5.90;;
5690;SDS011;2870;42.680;23.364;2023-02-27T07:30:26;10.10;;;6.30;;
5690;SDS011;2870;42.680;23.364;2023-02-27T07:32:55;8.73;;;6.27;;
5690;SDS011;2870;42.680;23.364;2023-02-27T07:35:21;7.50;;;5.80;;
5690;SDS011;2870;42.680;23.364;2023-02-27T07:37:48;8.30;;;5.67;;
5690;SDS011;2870;42.680;23.364;2023-02-27T07:40:15;10.83;;;6.97;;
5690;SDS011;2870;42.680;23.364;2023-02-27T07:42:44;9.80;;;6.47;;
5690;SDS011;2870;42.680;23.364;2023-02-27T07:45:12;8.20;;;5.83;;
5690;SDS011;2870;42.680;23.364;2023-02-27T07:47:39;10.13;;;5.93;;
5690;SDS011;2870;42.680;23.364;2023-02-27T07:50:06;11.27;;;6.17;;
5690;SDS011;2870;42.680;23.364;2023-02-27T07:52:38;9.43;;;6.30;;
5690;SDS011;2870;42.680;23.364;2023-02-27T07:55:05;17.00;;;8.37;;
5690;SDS011;2870;42.680;23.364;2023-02-27T07:57:32;10.53;;;5.50;;
5690;SDS011;2870;42.680;23.364;2023-02-27T08:00:00;8.50;;;5.30;;
5690;SDS011;2870;42.680;23.364;2023-02-27T08:02:28;9.50;;;6.40;;
5690;SDS011;2870;42.680;23.364;2023-02-27T08:04:55;14.67;;;7.30;;
5690;SDS011;2870;42.680;23.364;2023-02-27T08:07:21;10.00;;;6.10;;
5690;SDS011;2870;42.680;23.364;2023-02-27T08:09:48;10.27;;;6.80;;
5690;SDS011;2870;42.680;23.364;2023-02-27T08:12:15;10.80;;;7.00;;
5690;SDS011;2870;42.680;23.364;2023-02-27T08:14:42;18.93;;;9.80;;
5690;SDS011;2870;42.680;23.364;2023-02-27T08:17:10;11.13;;;6.80;;
5690;SDS011;2870;42.680;23.364;2023-02-27T08:19:37;12.37;;;7.10;;
5690;SDS011;2870;42.680;23.364;2023-02-27T08:22:05;26.67;;;7.20;;
5690;SDS011;2870;42.680;23.364;2023-02-27T08:24:31;9.70;;;6.90;;
5690;SDS011;2870;42.680;23.364;2023-02-27T08:26:59;13.13;;;6.83;;
5690;SDS011;2870;42.680;23.364;2023-02-27T08:29:25;8.50;;;6.07;;
5690;SDS011;2870;42.680;23.364;2023-02-27T08:31:52;10.40;;;6.07;;
5690;SDS011;2870;42.680;23.364;2023-02-27T08:34:20;15.50;;;7.00;;
5690;SDS011;2870;42.680;23.364;2023-02-27T08:36:47;9.80;;;6.47;;
5690;SDS011;2870;42.680;23.364;2023-02-27T08:39:14;8.70;;;6.17;;
5690;SDS011;2870;42.680;23.364;2023-02-27T08:41:41;12.53;;;6.50;;
5690;SDS011;2870;42.680;23.364;2023-02-27T08:44:09;8.40;;;5.97;;
5690;SDS011;2870;42.680;23.364;2023-02-27T08:46:37;10.07;;;6.77;;
5690;SDS011;2870;42.680;23.364;2023-02-27T08:49:03;11.53;;;6.60;;
5690;SDS011;2870;42.680;23.364;2023-02-27T08:51:31;7.90;;;5.57;;
5690;SDS011;2870;42.680;23.364;2023-02-27T08:53:58;13.97;;;5.43;;
5690;SDS011;2870;42.680;23.364;2023-02-27T08:56:25;10.40;;;6.47;;
5690;SDS011;2870;42.680;23.364;2023-02-27T08:58:53;11.97;;;6.07;;
5690;SDS011;2870;42.680;23.364;2023-02-27T09:01:20;10.87;;;6.00;;
5690;SDS011;2870;42.680;23.364;2023-02-27T09:03:47;12.20;;;7.00;;
5690;SDS011;2870;42.680;23.364;2023-02-27T09:06:14;10.03;;;6.93;;
5690;SDS011;2870;42.680;23.364;2023-02-27T09:08:43;13.80;;;6.60;;
5690;SDS011;2870;42.680;23.364;2023-02-27T09:11:09;10.70;;;6.00;;
5690;SDS011;2870;42.680;23.364;2023-02-27T09:13:36;8.23;;;5.30;;
5690;SDS011;2870;42.680;23.364;2023-02-27T09:16:03;10.43;;;6.20;;
5690;SDS011;2870;42.680;23.364;2023-02-27T09:18:30;8.20;;;5.60;;
5690;SDS011;2870;42.680;23.364;2023-02-27T09:20:57;11.47;;;5.90;;
5690;SDS011;2870;42.680;23.364;2023-02-27T09:23:24;11.37;;;6.57;;
5690;SDS011;2870;42.680;23.364;2023-02-27T09:25:53;12.80;;;5.90;;
5690;SDS011;2870;42.680;23.364;2023-02-27T09:28:19;10.20;;;6.40;;
5690;SDS011;2870;42.680;23.364;2023-02-27T09:30:46;13.10;;;5.93;;
5690;SDS011;2870;42.680;23.364;2023-02-27T09:33:13;8.00;;;6.13;;
5690;SDS011;2870;42.680;23.364;2023-02-27T09:35:40;8.87;;;5.90;;
5690;SDS011;2870;42.680;23.364;2023-02-27T09:38:07;7.57;;;5.97;;
5690;SDS011;2870;42.680;23.364;2023-02-27T09:40:37;16.73;;;6.93;;
5690;SDS011;2870;42.680;23.364;2023-02-27T09:43:08;10.20;;;7.40;;
5690;SDS011;2870;42.680;23.364;2023-02-27T09:45:39;11.80;;;7.47;;
5690;SDS011;2870;42.680;23.364;2023-02-27T09:48:07;9.63;;;6.97;;
5690;SDS011;2870;42.680;23.364;2023-02-27T09:50:41;12.47;;;6.77;;
5690;SDS011;2870;42.680;23.364;2023-02-27T09:53:10;11.43;;;7.50;;
5690;SDS011;2870;42.680;23.364;2023-02-27T09:55:41;10.60;;;7.17;;
5690;SDS011;2870;42.680;23.364;2023-02-27T09:58:29;13.80;;;7.13;;
5690;SDS011;2870;42.680;23.364;2023-02-27T10:01:08;13.23;;;8.40;;
5690;SDS011;2870;42.680;23.364;2023-02-27T10:03:47;16.73;;;8.57;;
5690;SDS011;2870;42.680;23.364;2023-02-27T10:06:24;9.27;;;6.70;;
5690;SDS011;2870;42.680;23.364;2023-02-27T10:08:55;11.57;;;8.10;;
5690;SDS011;2870;42.680;23.364;2023-02-27T10:11:33;12.20;;;8.93;;
5690;SDS011;2870;42.680;23.364;2023-02-27T10:14:13;12.70;;;8.43;;
5690;SDS011;2870;42.680;23.364;2023-02-27T10:16:49;18.97;;;8.37;;
5690;SDS011;2870;42.680;23.364;2023-02-27T10:19:22;17.57;;;8.70;;
5690;SDS011;2870;42.680;23.364;2023-02-27T10:21:54;20.60;;;8.90;;
5690;SDS011;2870;42.680;23.364;2023-02-27T10:24:24;14.70;;;8.73;;
5690;SDS011;2870;42.680;23.364;2023-02-27T10:26:53;17.10;;;9.73;;
5690;SDS011;2870;42.680;23.364;2023-02-27T10:29:26;13.80;;;8.53;;
5690;SDS011;2870;42.680;23.364;2023-02-27T10:31:55;18.50;;;9.10;;
5690;SDS011;2870;42.680;23.364;2023-02-27T10:34:28;16.43;;;9.30;;
5690;SDS011;2870;42.680;23.364;2023-02-27T10:36:56;17.07;;;8.93;;
5690;SDS011;2870;42.680;23.364;2023-02-27T10:39:26;13.80;;;10.07;;
5690;SDS011;2870;42.680;23.364;2023-02-27T10:41:53;17.30;;;8.93;;
5690;SDS011;2870;42.680;23.364;2023-02-27T10:44:28;13.77;;;8.47;;
5690;SDS011;2870;42.680;23.364;2023-02-27T10:46:56;14.50;;;9.50;;
5690;SDS011;2870;42.680;23.364;2023-02-27T10:49:22;16.43;;;8.90;;
5690;SDS011;2870;42.680;23.364;2023-02-27T10:52:04;14.00;;;9.57;;
5690;SDS011;2870;42.680;23.364;2023-02-27T10:54:33;21.37;;;9.70;;
5690;SDS011;2870;42.680;23.364;2023-02-27T10:57:00;17.00;;;9.60;;
5690;SDS011;2870;42.680;23.364;2023-02-27T10:59:32;15.80;;;10.37;;
5690;SDS011;2870;42.680;23.364;2023-02-27T11:02:02;14.53;;;9.97;;
5690;SDS011;2870;42.680;23.364;2023-02-27T11:04:32;18.53;;;8.97;;
5690;SDS011;2870;42.680;23.364;2023-02-27T11:07:03;17.43;;;10.20;;
5690;SDS011;2870;42.680;23.364;2023-02-27T11:09:33;17.37;;;9.70;;
5690;SDS011;2870;42.680;23.364;2023-02-27T11:12:12;15.43;;;9.10;;
5690;SDS011;2870;42.680;23.364;2023-02-27T11:14:54;13.23;;;8.47;;
5690;SDS011;2870;42.680;23.364;2023-02-27T11:17:24;14.50;;;8.30;;
5690;SDS011;2870;42.680;23.364;2023-02-27T11:19:53;14.20;;;8.60;;
5690;SDS011;2870;42.680;23.364;2023-02-27T11:22:21;35.43;;;10.00;;
5690;SDS011;2870;42.680;23.364;2023-02-27T11:24:50;18.13;;;8.13;;
5690;SDS011;2870;42.680;23.364;2023-02-27T11:27:18;13.17;;;8.90;;
5690;SDS011;2870;42.680;23.364;2023-02-27T11:29:55;13.83;;;8.50;;
5690;SDS011;2870;42.680;23.364;2023-02-27T11:32:23;16.83;;;9.57;;
5690;SDS011;2870;42.680;23.364;2023-02-27T11:34:53;26.13;;;10.57;;
5690;SDS011;2870;42.680;23.364;2023-02-27T11:37:22;15.00;;;9.43;;
5690;SDS011;2870;42.680;23.364;2023-02-27T11:39:56;14.60;;;9.20;;
5690;SDS011;2870;42.680;23.364;2023-02-27T11:42:29;26.23;;;10.80;;
5690;SDS011;2870;42.680;23.364;2023-02-27T11:45:00;24.07;;;9.63;;
5690;SDS011;2870;42.680;23.364;2023-02-27T11:47:30;32.93;;;9.23;;
5690;SDS011;2870;42.680;23.364;2023-02-27T11:50:04;18.70;;;10.10;;
5690;SDS011;2870;42.680;23.364;2023-02-27T11:52:49;10.07;;;7.23;;
5690;SDS011;2870;42.680;23.364;2023-02-27T11:55:18;16.67;;;8.10;;
5690;SDS011;2870;42.680;23.364;2023-02-27T11:57:49;12.97;;;7.77;;
5690;SDS011;2870;42.680;23.364;2023-02-27T12:00:24;16.70;;;8.87;;
5690;SDS011;2870;42.680;23.364;2023-02-27T12:02:57;12.07;;;7.80;;
5690;SDS011;2870;42.680;23.364;2023-02-27T12:05:30;15.00;;;7.60;;
5690;SDS011;2870;42.680;23.364;2023-02-27T12:08:01;14.00;;;7.60;;
5690;SDS011;2870;42.680;23.364;2023-02-27T12:10:34;12.67;;;8.00;;
5690;SDS011;2870;42.680;23.364;2023-02-27T12:13:12;13.10;;;8.07;;
5690;SDS011;2870;42.680;23.364;2023-02-27T12:15:46;19.07;;;9.50;;
5690;SDS011;2870;42.680;23.364;2023-02-27T12:18:17;19.57;;;9.30;;
5690;SDS011;2870;42.680;23.364;2023-02-27T12:20:50;16.57;;;8.60;;
5690;SDS011;2870;42.680;23.364;2023-02-27T12:23:23;17.33;;;9.87;;
5690;SDS011;2870;42.680;23.364;2023-02-27T12:25:55;15.73;;;9.67;;
5690;SDS011;2870;42.680;23.364;2023-02-27T12:28:32;21.03;;;9.30;;
5690;SDS011;2870;42.680;23.364;2023-02-27T12:31:29;16.10;;;9.37;;
5690;SDS011;2870;42.680;23.364;2023-02-27T12:34:04;16.50;;;8.40;;
5690;SDS011;2870;42.680;23.364;2023-02-27T12:36:39;16.47;;;8.60;;
5690;SDS011;2870;42.680;23.364;2023-02-27T12:39:08;13.70;;;8.57;;
5690;SDS011;2870;42.680;23.364;2023-02-27T12:41:44;20.30;;;8.93;;
5690;SDS011;2870;42.680;23.364;2023-02-27T12:44:31;20.90;;;8.20;;
5690;SDS011;2870;42.680;23.364;2023-02-27T12:47:14;16.10;;;8.40;;
5690;SDS011;2870;42.680;23.364;2023-02-27T12:49:51;13.77;;;9.00;;
5690;SDS011;2870;42.680;23.364;2023-02-27T12:52:27;19.63;;;9.40;;
5690;SDS011;2870;42.680;23.364;2023-02-27T12:55:05;20.37;;;9.20;;
5690;SDS011;2870;42.680;23.364;2023-02-27T13:00:44;14.73;;;8.87;;
5690;SDS011;2870;42.680;23.364;2023-02-27T13:03:15;16.43;;;9.00;;
5690;SDS011;2870;42.680;23.364;2023-02-27T13:05:50;19.27;;;10.73;;
5690;SDS011;2870;42.680;23.364;2023-02-27T13:08:30;14.80;;;9.50;;
5690;SDS011;2870;42.680;23.364;2023-02-27T13:11:12;18.70;;;9.30;;
5690;SDS011;2870;42.680;23.364;2023-02-27T13:13:47;13.97;;;8.10;;
5690;SDS011;2870;42.680;23.364;2023-02-27T13:16:18;15.37;;;8.37;;
5690;SDS011;2870;42.680;23.364;2023-02-27T13:18:50;17.13;;;8.07;;
5690;SDS011;2870;42.680;23.364;2023-02-27T13:21:23;25.70;;;7.93;;
5690;SDS011;2870;42.680;23.364;2023-02-27T13:23:55;17.13;;;8.40;;
5690;SDS011;2870;42.680;23.364;2023-02-27T13:26:32;22.20;;;9.43;;
5690;SDS011;2870;42.680;23.364;2023-02-27T13:29:01;17.63;;;8.60;;
5690;SDS011;2870;42.680;23.364;2023-02-27T13:31:31;19.10;;;8.10;;
5690;SDS011;2870;42.680;23.364;2023-02-27T13:34:14;16.50;;;8.17;;
5690;SDS011;2870;42.680;23.364;2023-02-27T13:36:43;12.47;;;7.93;;
5690;SDS011;2870;42.680;23.364;2023-02-27T13:42:09;13.77;;;8.77;;
5690;SDS011;2870;42.680;23.364;2023-02-27T13:48:35;28.07;;;9.20;;
5690;SDS011;2870;42.680;23.364;2023-02-27T13:51:08;15.10;;;9.60;;
5690;SDS011;2870;42.680;23.364;2023-02-27T13:54:06;16.10;;;8.83;;
5690;SDS011;2870;42.680;23.364;2023-02-27T13:56:40;11.70;;;8.90;;
5690;SDS011;2870;42.680;23.364;2023-02-27T13:59:10;12.80;;;8.40;;
5690;SDS011;2870;42.680;23.364;2023-02-27T14:01:39;12.60;;;8.10;;
5690;SDS011;2870;42.680;23.364;2023-02-27T14:04:14;14.10;;;9.03;;
5690;SDS011;2870;42.680;23.364;2023-02-27T14:06:45;15.13;;;8.70;;
5690;SDS011;2870;42.680;23.364;2023-02-27T14:09:15;13.03;;;8.80;;
5690;SDS011;2870;42.680;23.364;2023-02-27T14:11:50;15.13;;;9.23;;
5690;SDS011;2870;42.680;23.364;2023-02-27T14:14:34;17.07;;;9.47;;
5690;SDS011;2870;42.680;23.364;2023-02-27T14:17:08;16.23;;;9.60;;
5690;SDS011;2870;42.680;23.364;2023-02-27T14:19:46;16.77;;;9.80;;
5690;SDS011;2870;42.680;23.364;2023-02-27T14:22:33;17.17;;;10.70;;
5690;SDS011;2870;42.680;23.364;2023-02-27T14:27:50;18.63;;;9.53;;
5690;SDS011;2870;42.680;23.364;2023-02-27T14:33:17;18.07;;;10.53;;
5690;SDS011;2870;42.680;23.364;2023-02-27T14:35:49;16.70;;;10.47;;
5690;SDS011;2870;42.680;23.364;2023-02-27T14:38:23;21.90;;;12.50;;
5690;SDS011;2870;42.680;23.364;2023-02-27T14:40:55;19.10;;;9.90;;
5690;SDS011;2870;42.680;23.364;2023-02-27T14:43:41;18.90;;;10.23;;
5690;SDS011;2870;42.680;23.364;2023-02-27T14:46:11;22.60;;;10.93;;
5690;SDS011;2870;42.680;23.364;2023-02-27T14:48:45;17.23;;;10.67;;
5690;SDS011;2870;42.680;23.364;2023-02-27T14:51:12;20.00;;;11.13;;
5690;SDS011;2870;42.680;23.364;2023-02-27T14:53:42;20.60;;;9.40;;
5690;SDS011;2870;42.680;23.364;2023-02-27T14:56:13;13.47;;;8.70;;
5690;SDS011;2870;42.680;23.364;2023-02-27T14:58:45;14.70;;;8.10;;
5690;SDS011;2870;42.680;23.364;2023-02-27T15:01:14;18.27;;;9.10;;
5690;SDS011;2870;42.680;23.364;2023-02-27T15:03:44;18.30;;;8.50;;
5690;SDS011;2870;42.680;23.364;2023-02-27T15:06:15;20.37;;;10.40;;
5690;SDS011;2870;42.680;23.364;2023-02-27T15:08:46;17.83;;;10.10;;
5690;SDS011;2870;42.680;23.364;2023-02-27T15:11:16;13.60;;;9.30;;
5690;SDS011;2870;42.680;23.364;2023-02-27T15:13:45;16.80;;;9.97;;
5690;SDS011;2870;42.680;23.364;2023-02-27T15:16:19;18.67;;;10.33;;
5690;SDS011;2870;42.680;23.364;2023-02-27T15:18:58;15.33;;;9.73;;
5690;SDS011;2870;42.680;23.364;2023-02-27T15:21:30;21.90;;;10.33;;
5690;SDS011;2870;42.680;23.364;2023-02-27T15:24:01;18.83;;;10.63;;
5690;SDS011;2870;42.680;23.364;2023-02-27T15:26:32;19.80;;;10.70;;
5690;SDS011;2870;42.680;23.364;2023-02-27T15:29:01;24.10;;;12.40;;
5690;SDS011;2870;42.680;23.364;2023-02-27T15:31:30;17.33;;;11.80;;
5690;SDS011;2870;42.680;23.364;2023-02-27T15:33:58;22.83;;;11.10;;
5690;SDS011;2870;42.680;23.364;2023-02-27T15:36:27;20.53;;;11.47;;
5690;SDS011;2870;42.680;23.364;2023-02-27T15:39:04;18.60;;;10.20;;